»·PEaware :: SWA4273 KDCA-KMDW

SWA4273 :: KDCA-KMDW

FLIGHT INFORMATION

Flight Status: Arrived
Operator:
Southwest Airlines
More flights by this operator :: More flights under this callsign
Pilot: Anonymous 14085 (14085)
Aircraft: BOEING 737-800
(B738)
More flights by this aircraft type
Origin: KDCA Ronald Reagan Washington Natl
United States
Destination: KMDW Chicago-Midway
United States
More flights between these airports :: More routes between these airports
Route: WYNGS3 RAMAY Q72 HACKS J149 FWA PANGG3
File this flight plan on PilotEdge
Remarks: PBN / A1B1C1D1S1S2 DOF / 170606 REG / N806SB EET / KZID0030 KZAU0104 OPR / SWA RMK / TCAS SIMBRIEF
Altitude:
(Current/Filed)
34,000ft
Speed:
(Current/Filed)
465kts
Departed: 05-Jun-17 07:49 PM
Arrived: 05-Jun-17 09:26 PM
Distance/Time
Traveled:
520nm/1:37
Distance/Time
To Go:
Arrived

Flight Plot

Page will automatically refresh every two minutes.

Flight plan parsing failed; only flown route is shown


Map Options




Map Legend


Flown Route
Filed Route
Departure Airport
Arrival Airport
Navaid (VOR, NDB)
Fix

Horizontal Profiles

Position Reports

Time Latitude Longitude Heading Altitude Ground
Speed
05-Jun-17 19:27 38.849949 -77.040264 0 22ft 0kts
05-Jun-17 19:28 38.849949 -77.040264 301 22ft 0kts
05-Jun-17 19:29 38.849949 -77.040264 301 22ft 0kts
05-Jun-17 19:30 38.849949 -77.040264 301 22ft 0kts
05-Jun-17 19:31 38.849949 -77.040264 301 22ft 0kts
05-Jun-17 19:32 38.849949 -77.040264 301 22ft 0kts
05-Jun-17 19:33 38.849949 -77.040264 301 22ft 0kts
05-Jun-17 19:34 38.849949 -77.040264 301 22ft 0kts
05-Jun-17 19:35 38.849949 -77.040264 301 22ft 0kts
05-Jun-17 19:36 38.849949 -77.040264 301 22ft 0kts
05-Jun-17 19:37 38.849949 -77.040264 301 22ft 0kts
05-Jun-17 19:38 38.849949 -77.040264 301 22ft 0kts
05-Jun-17 19:39 38.849949 -77.040263 301 22ft 0kts
05-Jun-17 19:40 38.850086 -77.039922 10 21ft 8kts
05-Jun-17 19:41 38.851234 -77.039746 353 22ft 6kts
05-Jun-17 19:42 38.854006 -77.040027 356 22ft 13kts
05-Jun-17 19:43 38.857903 -77.040582 353 22ft 6kts
05-Jun-17 19:44 38.859887 -77.040109 32 22ft 9kts
05-Jun-17 19:45 38.860946 -77.038793 132 22ft 3kts
05-Jun-17 19:46 38.860864 -77.038758 169 22ft 0kts
05-Jun-17 19:47 38.860864 -77.038758 169 22ft 0kts
05-Jun-17 19:48 38.860864 -77.038758 169 22ft 0kts
05-Jun-17 19:49 38.860864 -77.038758 169 22ft 0kts
05-Jun-17 19:50 38.859946 -77.038514 173 22ft 39kts
05-Jun-17 19:51 38.823025 -77.037880 177 1268ft 183kts
05-Jun-17 19:52 38.764341 -77.037951 190 3739ft 252kts
05-Jun-17 19:53 38.721216 -77.109742 273 6955ft 290kts
05-Jun-17 19:54 38.734199 -77.211868 274 10487ft 307kts
05-Jun-17 19:55 38.732075 -77.328086 270 13556ft 337kts
05-Jun-17 19:56 38.726545 -77.444427 269 17725ft 330kts
05-Jun-17 19:57 38.720809 -77.558951 266 21587ft 328kts
05-Jun-17 19:58 38.713479 -77.674271 265 24690ft 337kts
05-Jun-17 19:59 38.706218 -77.792896 265 27831ft 336kts
05-Jun-17 20:00 38.699149 -77.907653 266 30882ft 322kts
05-Jun-17 20:01 38.692266 -78.018938 266 33170ft 315kts
05-Jun-17 20:02 38.685288 -78.130243 266 33797ft 330kts
05-Jun-17 20:03 38.677417 -78.252999 266 33821ft 368kts
05-Jun-17 20:04 38.694481 -78.382487 295 33795ft 391kts
05-Jun-17 20:05 38.746402 -78.503860 294 33773ft 390kts
05-Jun-17 20:06 38.796201 -78.625005 293 33779ft 390kts
05-Jun-17 20:07 38.844491 -78.743357 293 33781ft 389kts
05-Jun-17 20:08 38.894032 -78.864952 293 33831ft 390kts
05-Jun-17 20:09 38.943559 -78.987004 293 33831ft 389kts
05-Jun-17 20:10 38.993133 -79.109375 293 33830ft 390kts
05-Jun-17 20:11 39.021949 -79.238415 275 33837ft 385kts
05-Jun-17 20:12 39.032122 -79.373337 275 33827ft 385kts
05-Jun-17 20:13 39.041043 -79.507880 275 33824ft 385kts
05-Jun-17 20:14 39.049648 -79.643241 275 33846ft 385kts
05-Jun-17 20:15 39.057877 -79.777120 274 33887ft 386kts
05-Jun-17 20:16 39.066090 -79.912972 274 33886ft 386kts
05-Jun-17 20:17 39.074346 -80.051881 274 35578ft 393kts
05-Jun-17 20:18 39.082191 -80.187666 275 37802ft 381kts
05-Jun-17 20:19 39.089826 -80.322144 275 37847ft 382kts
05-Jun-17 20:20 39.097148 -80.456934 275 37850ft 382kts
05-Jun-17 20:21 39.103998 -80.587019 275 37852ft 383kts
05-Jun-17 20:22 39.110923 -80.720740 274 37865ft 383kts
05-Jun-17 20:23 39.117683 -80.854655 274 37883ft 383kts
05-Jun-17 20:24 39.124405 -80.989771 274 37888ft 384kts
05-Jun-17 20:25 39.143234 -81.121067 295 37923ft 385kts
05-Jun-17 20:26 39.190653 -81.240173 295 37912ft 385kts
05-Jun-17 20:27 39.239635 -81.361405 295 37910ft 385kts
05-Jun-17 20:28 39.288772 -81.482153 296 37908ft 386kts
05-Jun-17 20:29 39.338152 -81.603803 296 37906ft 386kts
05-Jun-17 20:30 39.386600 -81.723537 295 37917ft 386kts
05-Jun-17 20:31 39.435876 -81.845913 295 37937ft 396kts
05-Jun-17 20:32 39.486257 -81.971351 295 37914ft 396kts
05-Jun-17 20:33 39.536310 -82.096695 296 37912ft 397kts
05-Jun-17 20:34 39.578125 -82.201659 296 37910ft 397kts
05-Jun-17 20:35 39.636127 -82.348045 296 37908ft 398kts
05-Jun-17 20:36 39.677623 -82.453113 296 37931ft 398kts
05-Jun-17 20:37 39.735463 -82.600285 296 37931ft 398kts
05-Jun-17 20:38 39.782991 -82.721890 295 37942ft 398kts
05-Jun-17 20:39 39.824186 -82.827421 296 37928ft 398kts
05-Jun-17 20:40 39.880478 -82.972465 296 37938ft 399kts
05-Jun-17 20:41 39.929988 -83.100474 296 37936ft 399kts
05-Jun-17 20:42 39.970669 -83.206238 296 37935ft 399kts
05-Jun-17 20:43 40.020508 -83.336128 296 37962ft 406kts
05-Jun-17 20:44 40.070034 -83.465900 296 37958ft 406kts
05-Jun-17 20:45 40.118880 -83.595507 297 37945ft 416kts
05-Jun-17 20:46 40.169471 -83.729417 298 37995ft 445kts
05-Jun-17 20:47 40.223585 -83.871926 298 37971ft 443kts
05-Jun-17 20:48 40.277147 -84.014629 298 37969ft 443kts
05-Jun-17 20:49 40.348966 -84.141966 310 37970ft 440kts
05-Jun-17 20:50 40.423855 -84.265013 310 37967ft 440kts
05-Jun-17 20:51 40.499213 -84.388776 310 37966ft 439kts
05-Jun-17 20:52 40.574338 -84.512567 310 37965ft 439kts
05-Jun-17 20:53 40.649006 -84.636197 310 37965ft 439kts
05-Jun-17 20:54 40.722497 -84.758105 310 37965ft 439kts
05-Jun-17 20:55 40.797173 -84.882641 310 37965ft 439kts
05-Jun-17 20:56 40.871837 -85.007648 310 37964ft 439kts
05-Jun-17 20:57 40.946367 -85.132935 310 37963ft 439kts
05-Jun-17 20:58 40.998207 -85.272541 291 36131ft 407kts
05-Jun-17 20:59 41.030519 -85.403914 291 32935ft 388kts
05-Jun-17 21:00 41.065599 -85.549255 290 31423ft 430kts
05-Jun-17 21:01 41.098364 -85.688088 290 29420ft 413kts
05-Jun-17 21:02 41.130670 -85.825191 290 27461ft 415kts
05-Jun-17 21:03 41.162947 -85.963544 290 25183ft 384kts
05-Jun-17 21:04 41.193645 -86.095525 290 22993ft 375kts
05-Jun-17 21:05 41.223452 -86.224342 290 20815ft 364kts
05-Jun-17 21:06 41.252114 -86.348989 290 18643ft 353kts
05-Jun-17 21:07 41.279894 -86.470569 289 16463ft 343kts
05-Jun-17 21:08 41.306770 -86.588800 289 14286ft 335kts
05-Jun-17 21:09 41.330010 -86.691808 289 12312ft 295kts
05-Jun-17 21:10 41.352736 -86.791565 288 10807ft 279kts
05-Jun-17 21:11 41.374646 -86.888100 286 9315ft 273kts
05-Jun-17 21:12 41.395303 -86.983748 287 7834ft 272kts
05-Jun-17 21:13 41.416581 -87.079653 288 6422ft 272kts
05-Jun-17 21:14 41.438143 -87.176187 288 5556ft 272kts
05-Jun-17 21:15 41.459270 -87.272047 288 5074ft 272kts
05-Jun-17 21:16 41.480169 -87.367393 288 4986ft 272kts
05-Jun-17 21:17 41.500962 -87.462850 286 4983ft 272kts
05-Jun-17 21:18 41.516056 -87.560697 283 4183ft 269kts
05-Jun-17 21:19 41.530628 -87.656377 282 3988ft 269kts
05-Jun-17 21:20 41.544433 -87.746993 282 3972ft 245kts
05-Jun-17 21:21 41.564859 -87.829200 299 3985ft 237kts
05-Jun-17 21:22 41.600332 -87.893938 343 3346ft 210kts
05-Jun-17 21:23 41.654368 -87.887416 13 2370ft 174kts
05-Jun-17 21:24 41.695688 -87.863844 39 2392ft 176kts
05-Jun-17 21:25 41.725944 -87.826399 39 2229ft 130kts
05-Jun-17 21:26 41.751928 -87.793606 40 1479ft 132kts
05-Jun-17 21:27 41.778073 -87.760668 39 679ft 129kts
05-Jun-17 21:28 41.790561 -87.744871 42 615ft 14kts
05-Jun-17 21:29 41.790107 -87.743835 224 615ft 2kts
05-Jun-17 21:30 41.789213 -87.745248 252 615ft 9kts
05-Jun-17 21:31 41.788280 -87.744836 132 615ft 5kts
05-Jun-17 21:32 41.788119 -87.744593 134 615ft 0kts
05-Jun-17 21:33 41.769679 -87.771296 39 968ft 130kts
05-Jun-17 21:34 41.788119 -87.744593 134 615ft 0kts

Navigation Log

Ident Type
Flight plan parsing failed, navigation log unavailable